Terminal Aerodrome Forecast
Issued by NWS

Home | Current Version | Previous Version | Text Only | Print | Product List | Glossary On
Versions: 1 2 3 4 5 6 7 8 9 10 11 12 13 14
000
FTUS46 KSEW 300500
TAFBLI
TAF
KBLI 300520Z 3006/3106 18010G16KT P6SM SCT250
     FM300800 18008KT P6SM SCT250
     FM301200 18009KT P6SM BKN010 BKN250
     FM301800 18009KT P6SM SCT250
     FM310300 17004KT P6SM SCT250=

USA.gov is the U.S. government's official web portal to all federal, state and local government web resources and services.